createdAt,value
2024-01-17T00:02:07.917Z,26.45
2024-01-17T00:41:59.436Z,19.60
2024-01-17T00:44:28.651Z,18.02
2024-01-17T00:46:55.579Z,19.40
2024-01-17T00:49:22.562Z,19.75
2024-01-17T00:51:49.521Z,17.50
2024-01-17T00:54:16.360Z,20.17
2024-01-17T00:56:43.412Z,24.90
2024-01-17T00:59:10.413Z,17.17
2024-01-17T01:01:37.245Z,18.73
2024-01-17T01:04:04.383Z,21.00
2024-01-17T01:06:31.352Z,20.10
2024-01-17T01:08:58.136Z,19.75
2024-01-17T01:11:25.006Z,18.92
2024-01-17T01:13:51.837Z,20.77
2024-01-17T01:16:18.700Z,18.48
2024-01-17T01:18:46.601Z,17.73
2024-01-17T01:21:13.628Z,19.90
2024-01-17T01:23:40.440Z,20.73
2024-01-17T01:26:07.716Z,18.73
2024-01-17T01:28:34.667Z,18.67
2024-01-17T01:31:01.711Z,17.70
2024-01-17T01:33:28.659Z,13.95
2024-01-17T01:35:55.588Z,18.48
2024-01-17T01:38:22.474Z,22.60
2024-01-17T01:40:49.586Z,20.63
2024-01-17T01:43:23.980Z,22.10
2024-01-17T01:46:05.585Z,20.35
2024-01-17T01:48:36.672Z,17.98
2024-01-17T01:51:04.690Z,19.05
2024-01-17T01:53:34.159Z,20.63
2024-01-17T01:56:01.683Z,18.83
2024-01-17T01:58:29.436Z,18.98
2024-01-17T02:00:57.906Z,17.05
2024-01-17T02:03:26.396Z,20.63
2024-01-17T02:05:53.942Z,17.42
2024-01-17T02:08:21.181Z,19.55
2024-01-17T02:10:48.047Z,19.00
2024-01-17T02:13:15.547Z,15.00
2024-01-17T02:15:43.452Z,13.88
2024-01-17T02:18:10.431Z,17.30
2024-01-17T02:20:37.641Z,14.90
2024-01-17T02:23:25.650Z,18.92
2024-01-17T02:25:53.569Z,19.20
2024-01-17T02:28:20.603Z,18.10
2024-01-17T02:30:47.942Z,21.20
2024-01-17T02:33:15.737Z,11.98
2024-01-17T02:35:43.460Z,17.83
2024-01-17T02:38:10.290Z,16.38
2024-01-17T02:40:37.211Z,17.88
2024-01-17T02:43:04.741Z,17.38
2024-01-17T02:45:31.887Z,16.63
2024-01-17T02:47:59.318Z,17.58
2024-01-17T02:50:28.182Z,22.23
2024-01-17T02:52:55.020Z,19.23
2024-01-17T02:55:24.342Z,13.77
2024-01-17T02:57:52.316Z,16.27
2024-01-17T03:00:20.052Z,17.10
2024-01-17T03:02:48.330Z,16.40
2024-01-17T03:05:15.458Z,14.48
2024-01-17T03:07:42.470Z,16.67
2024-01-17T03:10:11.018Z,15.77
2024-01-17T03:12:37.817Z,14.65
2024-01-17T03:15:05.430Z,17.70
2024-01-17T03:17:32.407Z,17.50
2024-01-17T03:19:59.220Z,14.75
2024-01-17T03:22:26.060Z,17.50
2024-01-17T03:24:52.806Z,16.85
2024-01-17T03:27:19.575Z,17.75
2024-01-17T03:29:46.485Z,16.67
2024-01-17T03:32:13.324Z,17.10
2024-01-17T03:34:40.166Z,17.90
2024-01-17T03:37:08.726Z,20.10
2024-01-17T03:39:35.801Z,15.90
2024-01-17T03:42:02.803Z,18.40
2024-01-17T03:44:29.966Z,17.50
2024-01-17T03:46:56.906Z,22.90
2024-01-17T03:49:23.864Z,18.77
2024-01-17T03:51:50.716Z,19.95
2024-01-17T03:54:19.388Z,17.70
2024-01-17T03:57:29.126Z,17.55
2024-01-17T03:59:56.038Z,22.63
2024-01-17T04:02:22.758Z,18.92
2024-01-17T04:04:49.665Z,19.02
2024-01-17T04:07:21.966Z,17.50
2024-01-17T04:09:48.928Z,21.88
2024-01-17T04:12:15.766Z,22.20
2024-01-17T04:14:43.056Z,20.95
2024-01-17T04:17:13.096Z,18.15
2024-01-17T04:19:40.005Z,24.23
2024-01-17T04:22:06.837Z,18.48
2024-01-17T04:24:33.906Z,25.08
2024-01-17T04:27:00.991Z,25.83
2024-01-17T04:29:27.921Z,19.80
2024-01-17T04:31:54.894Z,22.40
2024-01-17T04:34:21.843Z,28.63
2024-01-17T04:36:48.792Z,22.83
2024-01-17T04:39:18.574Z,19.35
2024-01-17T04:41:45.620Z,19.13
2024-01-17T04:44:12.446Z,20.67
2024-01-17T04:46:39.533Z,18.13
2024-01-17T04:49:07.769Z,20.05
2024-01-17T04:51:35.150Z,18.00
2024-01-17T04:54:02.135Z,19.13
2024-01-17T04:56:29.213Z,18.98
2024-01-17T04:58:57.656Z,19.63
2024-01-17T05:01:24.602Z,18.42
2024-01-17T05:03:51.798Z,19.05
2024-01-17T05:06:18.784Z,20.02
2024-01-17T05:08:45.669Z,20.52
2024-01-17T05:11:12.473Z,18.85
2024-01-17T05:13:40.044Z,20.08
2024-01-17T05:16:07.822Z,24.48
2024-01-17T05:18:34.708Z,21.65
2024-01-17T05:21:01.952Z,20.48
2024-01-17T05:23:28.898Z,19.63
2024-01-17T05:25:55.687Z,23.17
2024-01-17T05:28:22.579Z,21.50
2024-01-17T05:30:49.394Z,20.80
2024-01-17T05:33:16.704Z,22.23
2024-01-17T05:35:43.805Z,13.77
2024-01-17T05:38:10.744Z,15.10
2024-01-17T05:40:37.555Z,18.38
2024-01-17T05:43:05.358Z,15.40
2024-01-17T05:45:32.356Z,21.50
2024-01-17T05:47:59.724Z,18.67
2024-01-17T05:50:28.169Z,13.85
2024-01-17T05:52:55.413Z,14.77
2024-01-17T05:55:22.876Z,14.93
2024-01-17T05:57:51.846Z,15.90
2024-01-17T06:00:19.863Z,19.20
2024-01-17T06:02:46.961Z,21.00
2024-01-17T06:05:13.857Z,20.52
2024-01-17T06:07:42.423Z,17.17
2024-01-17T06:13:29.068Z,15.95
2024-01-17T06:15:56.704Z,11.52
2024-01-17T06:18:24.137Z,12.63
2024-01-17T06:20:51.421Z,10.80
2024-01-17T06:23:27.065Z,13.00
2024-01-17T06:25:55.237Z,11.40
2024-01-17T06:28:22.112Z,13.00
2024-01-17T06:30:49.029Z,10.73
2024-01-17T06:33:16.149Z,8.27
2024-01-17T06:35:43.039Z,13.15
2024-01-17T06:38:10.255Z,11.85
2024-01-17T06:43:37.136Z,10.30
2024-01-17T06:48:56.026Z,9.75
2024-01-17T06:51:40.471Z,11.52
2024-01-17T07:51:30.066Z,12.40
2024-01-17T07:53:58.360Z,10.32
2024-01-17T07:56:25.490Z,8.50
2024-01-17T07:58:52.720Z,10.40
2024-01-17T08:01:25.924Z,9.75
2024-01-17T08:03:53.214Z,8.55
2024-01-17T08:06:20.854Z,11.77
2024-01-17T08:08:47.941Z,10.25
2024-01-17T08:11:22.752Z,10.60
2024-01-17T08:13:49.609Z,8.88
2024-01-17T08:16:16.488Z,9.00
2024-01-17T08:18:43.775Z,8.45
2024-01-17T08:21:10.891Z,11.43
2024-01-17T08:23:37.815Z,8.85
2024-01-17T08:26:04.811Z,7.78
2024-01-17T08:28:31.773Z,8.60
2024-01-17T08:30:58.629Z,10.27
2024-01-17T08:33:26.366Z,11.73
2024-01-17T08:35:53.371Z,9.40
2024-01-17T08:38:20.182Z,8.57
2024-01-17T08:40:46.946Z,7.20
2024-01-17T08:43:13.853Z,11.63
2024-01-17T08:45:40.708Z,8.95
2024-01-17T08:48:07.652Z,12.23
2024-01-17T08:50:34.477Z,6.97
2024-01-17T08:53:01.285Z,5.13
2024-01-17T08:55:55.840Z,8.18
2024-01-17T08:58:22.709Z,7.25
2024-01-17T09:00:49.499Z,6.45
2024-01-17T09:03:16.415Z,6.97
2024-01-17T09:05:43.279Z,5.32
2024-01-17T09:08:10.194Z,4.30
2024-01-17T09:10:37.194Z,6.47
2024-01-17T09:13:04.140Z,7.60
2024-01-17T09:15:30.886Z,5.57
2024-01-17T09:17:57.904Z,7.35
2024-01-17T09:20:25.618Z,7.47
2024-01-17T09:22:52.358Z,6.10
2024-01-17T09:25:19.255Z,6.95
2024-01-17T09:27:46.115Z,5.70
2024-01-17T09:30:14.110Z,6.18
2024-01-17T09:32:42.663Z,7.93
2024-01-17T09:35:09.774Z,5.82
2024-01-17T09:37:37.426Z,6.22
2024-01-17T09:40:06.599Z,7.47
2024-01-17T09:42:36.595Z,6.68
2024-01-17T09:45:04.205Z,7.60
2024-01-17T09:47:33.178Z,6.63
2024-01-17T09:50:00.083Z,5.82
2024-01-17T09:52:26.928Z,11.48
2024-01-17T09:54:54.319Z,12.40
2024-01-17T09:57:26.443Z,11.30
2024-01-17T10:00:00.958Z,8.38
2024-01-17T10:02:29.067Z,7.78
2024-01-17T10:04:58.685Z,10.75
2024-01-17T10:07:25.732Z,10.88
2024-01-17T10:09:52.533Z,12.52
2024-01-17T10:12:20.742Z,12.82
2024-01-17T10:14:48.368Z,8.25
2024-01-17T10:17:15.438Z,9.95
2024-01-17T10:19:42.521Z,8.98
2024-01-17T10:22:11.737Z,9.18
2024-01-17T10:24:42.292Z,6.35
2024-01-17T10:27:09.171Z,6.80
2024-01-17T10:29:41.562Z,5.63
2024-01-17T10:32:09.757Z,7.68
2024-01-17T10:34:40.012Z,6.63
2024-01-17T10:37:08.745Z,6.32
2024-01-17T10:39:35.559Z,6.47
2024-01-17T10:42:06.934Z,8.32
2024-01-17T10:44:33.977Z,6.50
2024-01-17T10:47:01.978Z,6.80
2024-01-17T10:49:28.855Z,7.22
2024-01-17T10:52:16.212Z,6.57
2024-01-17T10:54:52.568Z,7.50
2024-01-17T10:57:20.923Z,9.30
2024-01-17T10:59:50.465Z,8.13
2024-01-17T11:02:20.198Z,6.68
2024-01-17T11:04:59.690Z,7.70
2024-01-17T11:07:27.194Z,7.03
2024-01-17T11:09:56.198Z,7.50
2024-01-17T11:12:23.407Z,7.97
2024-01-17T11:14:52.193Z,6.93
2024-01-17T11:17:26.857Z,5.53
2024-01-17T11:20:03.580Z,5.30
2024-01-17T11:22:31.499Z,7.13
2024-01-17T11:25:14.712Z,4.22
2024-01-17T11:28:07.622Z,4.57
2024-01-17T11:30:43.321Z,7.25
2024-01-17T11:33:13.185Z,6.22
2024-01-17T11:35:46.717Z,6.20
2024-01-17T11:38:25.824Z,6.63
2024-01-17T11:40:57.710Z,5.70
2024-01-17T11:43:32.678Z,6.25
2024-01-17T11:46:01.080Z,5.43
2024-01-17T11:48:30.366Z,5.57
2024-01-17T11:51:12.761Z,6.35
2024-01-17T11:53:42.904Z,6.32
2024-01-17T11:56:17.237Z,6.60
2024-01-17T11:58:49.132Z,5.93
2024-01-17T12:01:24.691Z,5.78
2024-01-17T12:03:52.274Z,5.60
2024-01-17T12:06:22.903Z,4.95
2024-01-17T12:08:53.503Z,8.27
2024-01-17T12:11:22.104Z,9.70
2024-01-17T12:13:53.629Z,5.75
2024-01-17T12:16:27.510Z,7.03
2024-01-17T12:18:58.903Z,7.45
2024-01-17T12:21:26.536Z,5.35
2024-01-17T12:23:53.585Z,4.38
2024-01-17T12:26:20.807Z,5.47
2024-01-17T12:28:49.167Z,8.90
2024-01-17T12:31:19.927Z,7.10
2024-01-17T12:33:47.156Z,12.63
2024-01-17T12:36:15.540Z,6.45
2024-01-17T12:38:42.662Z,4.55
2024-01-17T12:41:11.701Z,5.72
2024-01-17T12:43:39.727Z,7.57
2024-01-17T12:46:08.537Z,7.32
2024-01-17T12:48:36.883Z,8.18
2024-01-17T12:51:09.282Z,5.53
2024-01-17T12:53:41.007Z,6.80
2024-01-17T12:56:08.217Z,8.40
2024-01-17T12:58:35.104Z,7.63
2024-01-17T13:01:02.999Z,11.77
2024-01-17T13:03:30.640Z,7.95
2024-01-17T13:06:02.779Z,10.10
2024-01-17T13:08:30.855Z,8.93
2024-01-17T13:10:59.216Z,8.20
2024-01-17T13:13:29.349Z,8.43
2024-01-17T13:15:59.101Z,10.70
2024-01-17T13:18:29.952Z,10.25
2024-01-17T13:21:14.447Z,8.13
2024-01-17T13:23:42.223Z,7.43
2024-01-17T13:26:09.611Z,9.18
2024-01-17T13:28:37.469Z,10.85
2024-01-17T13:31:05.202Z,8.48
2024-01-17T13:33:35.818Z,12.30
2024-01-17T13:36:03.038Z,9.68
2024-01-17T13:38:30.339Z,8.50
2024-01-17T13:40:59.394Z,9.95
2024-01-17T13:43:28.778Z,10.00
2024-01-17T13:45:56.515Z,12.10
2024-01-17T13:48:36.264Z,10.88
2024-01-17T13:51:03.608Z,11.98
2024-01-17T13:53:35.468Z,10.88
2024-01-17T13:56:04.974Z,15.50
2024-01-17T13:58:33.887Z,10.63
2024-01-17T14:01:09.722Z,13.90
2024-01-17T14:07:51.938Z,9.50
2024-01-17T14:16:33.422Z,14.27
2024-01-17T14:19:00.674Z,18.42
2024-01-17T14:21:27.606Z,29.98
2024-01-17T14:23:55.531Z,15.88
2024-01-17T14:26:22.598Z,16.52
2024-01-17T14:28:49.471Z,15.32
2024-01-17T14:31:17.283Z,11.90
2024-01-17T14:33:46.630Z,10.27
2024-01-17T14:36:13.609Z,10.38
2024-01-17T14:38:40.520Z,12.57
2024-01-17T14:41:09.687Z,12.98
2024-01-17T14:43:38.193Z,10.85
2024-01-17T14:46:05.131Z,12.68
2024-01-17T14:48:32.919Z,10.30
2024-01-17T14:50:59.940Z,12.70
2024-01-17T14:53:26.817Z,12.35
2024-01-17T14:55:53.702Z,13.48
2024-01-17T14:58:20.430Z,9.90
2024-01-17T15:00:47.296Z,10.27
2024-01-17T15:03:14.124Z,16.25
2024-01-17T15:05:41.144Z,13.65
2024-01-17T15:08:08.110Z,10.50
2024-01-17T15:10:35.012Z,10.77
2024-01-17T15:13:01.926Z,8.55
2024-01-17T15:15:28.730Z,10.13
2024-01-17T15:17:55.814Z,7.38
2024-01-17T15:20:22.664Z,6.40
2024-01-17T15:22:49.979Z,6.05
2024-01-17T15:25:19.999Z,6.95
2024-01-17T15:27:49.024Z,5.45
2024-01-17T15:30:16.930Z,5.18
2024-01-17T15:32:47.869Z,4.50
2024-01-17T15:35:23.449Z,4.75
2024-01-17T15:53:07.623Z,4.30
2024-01-17T16:13:49.677Z,4.78
2024-01-17T16:16:19.412Z,3.75
2024-01-17T16:18:47.778Z,5.45
2024-01-17T16:21:15.493Z,4.40
2024-01-17T16:23:44.144Z,7.35
2024-01-17T16:26:11.574Z,5.95
2024-01-17T16:28:40.447Z,4.25
2024-01-17T16:31:08.977Z,3.53
2024-01-17T16:33:38.056Z,4.72
2024-01-17T16:36:12.761Z,3.60
2024-01-17T16:38:42.404Z,3.75
2024-01-17T16:41:09.951Z,3.75
2024-01-17T16:43:37.247Z,4.47
2024-01-17T16:46:04.188Z,3.72
2024-01-17T16:48:36.617Z,4.93
2024-01-17T16:51:08.423Z,6.60
2024-01-17T16:54:01.045Z,3.85
2024-01-17T16:56:30.718Z,2.80
2024-01-17T16:59:26.472Z,2.55
2024-01-17T17:01:53.373Z,3.25
2024-01-17T17:04:20.564Z,6.00
2024-01-17T17:06:47.911Z,4.25
2024-01-17T17:09:15.023Z,3.10
2024-01-17T17:11:41.893Z,4.75
2024-01-17T17:14:08.733Z,5.00
2024-01-17T17:16:35.604Z,4.28
2024-01-17T17:19:02.876Z,4.35
2024-01-17T17:21:30.025Z,3.88
2024-01-17T17:23:56.959Z,6.20
2024-01-17T17:26:23.857Z,3.85
2024-01-17T17:28:50.798Z,29.60
2024-01-17T17:31:20.343Z,22.30
2024-01-17T17:33:47.629Z,16.70
2024-01-17T17:36:15.778Z,13.85
2024-01-17T17:38:43.513Z,5.65
2024-01-17T17:41:10.404Z,8.18
2024-01-17T17:43:37.826Z,5.95
2024-01-17T17:46:04.953Z,6.82
2024-01-17T17:48:31.855Z,7.35
2024-01-17T17:50:59.858Z,5.90
2024-01-17T17:53:29.985Z,6.32
2024-01-17T17:55:56.847Z,9.48
2024-01-17T17:58:23.822Z,8.10
2024-01-17T18:00:50.975Z,5.65
2024-01-17T18:03:18.409Z,11.57
2024-01-17T18:05:46.917Z,5.68
2024-01-17T18:08:15.887Z,7.60
2024-01-17T18:10:45.381Z,5.70
2024-01-17T18:13:18.351Z,6.40
2024-01-17T18:15:45.251Z,6.13
2024-01-17T18:18:12.893Z,8.38
2024-01-17T18:20:40.215Z,5.68
2024-01-17T18:23:07.098Z,4.63
2024-01-17T18:25:36.305Z,3.72
2024-01-17T18:28:04.247Z,2.97
2024-01-17T18:30:31.236Z,2.67
2024-01-17T18:32:58.415Z,1.40
2024-01-17T18:35:26.477Z,3.87
2024-01-17T18:37:53.374Z,1.33
2024-01-17T18:40:20.613Z,1.10
2024-01-17T18:42:47.684Z,1.43
2024-01-17T18:45:14.642Z,4.87
2024-01-17T18:47:41.559Z,4.63
2024-01-17T18:50:08.871Z,2.27
2024-01-17T18:52:35.763Z,1.40
2024-01-17T18:55:02.982Z,1.20
2024-01-17T18:57:30.762Z,0.90
2024-01-17T18:59:57.749Z,1.63
2024-01-17T19:02:24.856Z,2.00
2024-01-17T19:04:51.940Z,2.43
2024-01-17T19:07:19.412Z,1.70
2024-01-17T19:09:46.558Z,1.87
2024-01-17T19:12:18.324Z,2.20
2024-01-17T19:14:46.582Z,1.30
2024-01-17T19:17:13.971Z,1.73
2024-01-17T19:19:43.578Z,3.50
2024-01-17T19:22:10.750Z,1.80
2024-01-17T19:24:41.237Z,2.57
2024-01-17T19:27:09.094Z,1.43
2024-01-17T19:29:48.592Z,1.77
2024-01-17T19:32:20.134Z,2.13
2024-01-17T19:34:50.714Z,1.67
2024-01-17T19:37:23.164Z,1.67
2024-01-17T19:39:50.640Z,1.30
2024-01-17T19:42:18.092Z,1.90
2024-01-17T19:44:45.049Z,2.47
2024-01-17T19:47:14.431Z,1.93
2024-01-17T19:49:50.844Z,1.30
2024-01-17T19:52:18.163Z,2.73
2024-01-17T19:54:50.455Z,2.00
2024-01-17T19:57:32.861Z,1.57
2024-01-17T20:00:02.111Z,2.97
2024-01-17T20:02:32.166Z,1.92
2024-01-17T20:04:59.160Z,1.60
2024-01-17T20:07:36.229Z,1.60
2024-01-17T20:10:05.786Z,4.10
2024-01-17T20:12:33.601Z,2.70
2024-01-17T20:15:03.450Z,2.10
2024-01-17T20:17:30.565Z,1.20
2024-01-17T20:19:57.636Z,2.03
2024-01-17T20:22:27.534Z,1.50
2024-01-17T20:24:58.228Z,1.73
2024-01-17T20:27:25.336Z,1.67
2024-01-17T20:29:52.846Z,1.13
2024-01-17T20:32:19.765Z,2.30
2024-01-17T20:34:47.526Z,1.37
2024-01-17T20:37:17.631Z,1.73
2024-01-17T20:39:44.665Z,1.90
2024-01-17T20:42:11.748Z,1.60
2024-01-17T20:44:39.054Z,1.37
2024-01-17T20:47:06.566Z,0.80
2024-01-17T20:49:33.596Z,1.83
2024-01-17T20:52:03.587Z,2.60
2024-01-17T20:54:30.648Z,1.60
2024-01-17T20:57:01.160Z,1.40
2024-01-17T20:59:28.177Z,1.30
2024-01-17T21:01:55.214Z,1.20
2024-01-17T21:04:26.550Z,0.80
2024-01-17T21:17:40.962Z,1.20
2024-01-17T21:20:14.215Z,0.80
2024-01-17T21:22:54.914Z,1.20
2024-01-17T21:25:58.163Z,1.10
2024-01-17T21:28:25.184Z,1.27
2024-01-17T21:31:03.932Z,1.33
2024-01-17T21:33:34.279Z,1.10
2024-01-17T21:36:02.173Z,1.33
2024-01-17T21:38:29.381Z,0.87
2024-01-17T21:40:56.300Z,1.10
2024-01-17T21:43:23.501Z,1.13
2024-01-17T21:45:50.538Z,2.07
2024-01-17T21:48:17.902Z,0.77
2024-01-17T21:50:47.889Z,0.73
2024-01-17T21:53:15.690Z,1.33
2024-01-17T21:55:43.096Z,1.40
2024-01-17T21:58:09.939Z,1.37
2024-01-17T22:00:36.920Z,0.90
2024-01-17T22:03:04.219Z,0.60
2024-01-17T22:05:31.052Z,1.02
2024-01-17T22:07:57.977Z,0.80
2024-01-17T22:10:24.830Z,2.87
2024-01-17T22:12:51.786Z,1.13
2024-01-17T22:15:18.663Z,1.13
2024-01-17T22:17:51.915Z,0.80
2024-01-17T22:20:19.376Z,1.20
2024-01-17T22:22:46.246Z,0.90
2024-01-17T22:25:13.102Z,1.27
2024-01-17T22:27:39.966Z,0.97
2024-01-17T22:30:08.453Z,1.47
2024-01-17T22:32:36.821Z,0.90
2024-01-17T22:35:04.224Z,1.07
2024-01-17T22:37:30.994Z,1.00
2024-01-17T22:39:57.942Z,1.57
2024-01-17T22:42:24.814Z,0.93
2024-01-17T22:44:51.881Z,0.97
2024-01-17T22:47:18.886Z,0.63
2024-01-17T22:49:46.218Z,0.70
2024-01-17T22:52:13.814Z,0.88
2024-01-17T22:54:41.199Z,0.80
2024-01-17T22:57:08.265Z,0.80
2024-01-17T22:59:35.203Z,0.73
2024-01-17T23:02:02.035Z,1.47
2024-01-17T23:04:29.172Z,0.77
2024-01-17T23:06:56.167Z,1.53
2024-01-17T23:09:23.163Z,0.90
2024-01-17T23:11:50.077Z,0.80
2024-01-17T23:14:20.781Z,0.50
2024-01-17T23:16:47.658Z,0.60
2024-01-17T23:19:14.646Z,1.47
2024-01-17T23:21:41.642Z,0.80
2024-01-17T23:24:09.280Z,0.80
2024-01-17T23:26:37.049Z,0.60
2024-01-17T23:29:03.903Z,0.63
2024-01-17T23:31:30.809Z,0.90
2024-01-17T23:33:58.386Z,0.60
2024-01-17T23:36:25.237Z,0.75
2024-01-17T23:38:53.954Z,0.70
2024-01-17T23:41:20.843Z,0.95
2024-01-17T23:43:47.679Z,1.37
2024-01-17T23:46:14.490Z,0.80
2024-01-17T23:48:41.541Z,0.60
2024-01-17T23:51:08.815Z,1.60
2024-01-17T23:53:35.999Z,1.27
2024-01-17T23:56:02.968Z,0.60
2024-01-17T23:58:30.433Z,0.68
